Hong Xiang 2 — BYBA — position and weather

sailwx.info

Track history (hours):
 
Tides and Currents Weather Stations Pressure Air Temp Water Temp Dewpoint Dewpoint Depression Visibility Wind Speed Wind Dir Waves Ship Positions

Hong Xiang 2

Last reported at 2016-Aug-31 01:32 UTC. Time now 2016-Aug-31 02:18 UTC.
Position N 23°02' E 116°39'.

Length 96 m; draft 5 m.

Type: Ship (hazmat cat A). MMSI: 413413000.

Date/timePositionNaut miles runAvg speedWind from/ knotsBaromVisibWave heightAir tempDewpointWater temp
2016-Aug-31 01:32N 23°02' E 116°39'13510.2
2016-Aug-30 12:17N 22°09' E 114°24'31 9.7
2016-Aug-30 09:07N 22°10' E 113°51'610.2
2016-Aug-30 08:34N 22°15' E 113°49'1111.3
2016-Aug-30 07:33N 22°26' E 113°45'3311.1
2016-Aug-30 04:34N 22°57' E 113°33'0 0.0
2016-Aug-29 17:09N 22°57' E 113°33'3 5.2
2016-Aug-29 16:33N 22°54' E 113°34'2110.2
2016-Aug-29 14:28N 22°35' E 113°43'1011.4
2016-Aug-29 13:33N 22°24' E 113°46'1110.8
2016-Aug-29 12:33N 22°14' E 113°49'  
2016-Aug-26 13:06N 23°07' E 116°43'911.0
2016-Aug-26 12:15N 23°13' E 116°50'710.0
2016-Aug-26 11:33N 23°19' E 116°46'8 8.4
2016-Aug-26 10:33N 23°21' E 116°37'9 8.8
2016-Aug-26 09:33N 23°26' E 116°30'2 0.1
2016-Aug-25 02:18N 23°28' E 116°28'4 5.0
2016-Aug-25 01:33N 23°26' E 116°32'9 8.6
2016-Aug-25 00:33N 23°21' E 116°39'9 8.6
2016-Aug-24 23:33N 23°17' E 116°48'2 1.7
2016-Aug-24 22:31N 23°16' E 116°50'0 0.1
2016-Aug-24 21:31N 23°16' E 116°50'0 0.1
2016-Aug-24 20:25N 23°16' E 116°50'0 0.0
2016-Aug-24 19:31N 23°16' E 116°50'0 0.0
2016-Aug-24 18:31N 23°16' E 116°50'0 0.0
2016-Aug-24 17:31N 23°16' E 116°50'0 0.0
2016-Aug-24 16:31N 23°16' E 116°50'0 0.1
2016-Aug-24 15:25N 23°16' E 116°50'0 0.1
2016-Aug-24 14:31N 23°16' E 116°50'0 0.0
2016-Aug-24 13:23N 23°16' E 116°50'0 0.0
2016-Aug-24 12:25N 23°16' E 116°50'0 0.0
2016-Aug-24 11:17N 23°16' E 116°50'0 0.1
2016-Aug-24 10:19N 23°16' E 116°50'0 0.0
2016-Aug-24 09:29N 23°16' E 116°50'0 0.0
2016-Aug-24 08:29N 23°16' E 116°50'0 0.0
2016-Aug-24 07:29N 23°16' E 116°50'0 0.1
2016-Aug-24 06:32N 23°16' E 116°50'19 9.7
2016-Aug-24 04:33N 23°00' E 116°38'13410.1
2016-Aug-23 15:21N 22°09' E 114°25'31 4.3
2016-Aug-23 08:08N 22°10' E 113°51'610.4
2016-Aug-23 07:33N 22°15' E 113°49'38 9.5
2016-Aug-23 03:30N 22°51' E 113°34'6 6.0
2016-Aug-23 02:33N 22°57' E 113°33'0 0.0
2016-Aug-23 01:32N 22°57' E 113°33'0 0.0
2016-Aug-22 12:22N 22°57' E 113°33'1 1.4
2016-Aug-22 11:33N 22°56' E 113°33'36 8.6
2016-Aug-22 07:19N 22°22' E 113°47'7 9.4
2016-Aug-22 06:33N 22°15' E 113°49'29 1.0
2016-Aug-21 02:22N 22°08' E 114°19'  
Track history (hours):
 
Tides and Currents Weather Stations Pressure Air Temp Water Temp Dewpoint Dewpoint Depression Visibility Wind Speed Wind Dir Waves Ship Positions

Hong Xiang 2

Last reported at 2016-Aug-31 01:32 UTC. Time now 2016-Aug-31 02:18 UTC.
Position N 23°02' E 116°39'.

Length 96 m; draft 5 m.

Type: Ship (hazmat cat A). MMSI: 413413000.

Date/timePositionNaut miles runAvg speedWind from/ knotsBaromVisibWave heightAir tempDewpointWater temp
2016-Aug-31 01:32N 23°02' E 116°39'13510.2
2016-Aug-30 12:17N 22°09' E 114°24'31 9.7
2016-Aug-30 09:07N 22°10' E 113°51'610.2
2016-Aug-30 08:34N 22°15' E 113°49'1111.3
2016-Aug-30 07:33N 22°26' E 113°45'3311.1
2016-Aug-30 04:34N 22°57' E 113°33'0 0.0
2016-Aug-29 17:09N 22°57' E 113°33'3 5.2
2016-Aug-29 16:33N 22°54' E 113°34'2110.2
2016-Aug-29 14:28N 22°35' E 113°43'1011.4
2016-Aug-29 13:33N 22°24' E 113°46'1110.8
2016-Aug-29 12:33N 22°14' E 113°49'  
2016-Aug-26 13:06N 23°07' E 116°43'911.0
2016-Aug-26 12:15N 23°13' E 116°50'710.0
2016-Aug-26 11:33N 23°19' E 116°46'8 8.4
2016-Aug-26 10:33N 23°21' E 116°37'9 8.8
2016-Aug-26 09:33N 23°26' E 116°30'2 0.1
2016-Aug-25 02:18N 23°28' E 116°28'4 5.0
2016-Aug-25 01:33N 23°26' E 116°32'9 8.6
2016-Aug-25 00:33N 23°21' E 116°39'9 8.6
2016-Aug-24 23:33N 23°17' E 116°48'2 1.7
2016-Aug-24 22:31N 23°16' E 116°50'0 0.1
2016-Aug-24 21:31N 23°16' E 116°50'0 0.1
2016-Aug-24 20:25N 23°16' E 116°50'0 0.0
2016-Aug-24 19:31N 23°16' E 116°50'0 0.0
2016-Aug-24 18:31N 23°16' E 116°50'0 0.0
2016-Aug-24 17:31N 23°16' E 116°50'0 0.0
2016-Aug-24 16:31N 23°16' E 116°50'0 0.1
2016-Aug-24 15:25N 23°16' E 116°50'0 0.1
2016-Aug-24 14:31N 23°16' E 116°50'0 0.0
2016-Aug-24 13:23N 23°16' E 116°50'0 0.0
2016-Aug-24 12:25N 23°16' E 116°50'0 0.0
2016-Aug-24 11:17N 23°16' E 116°50'0 0.1
2016-Aug-24 10:19N 23°16' E 116°50'0 0.0
2016-Aug-24 09:29N 23°16' E 116°50'0 0.0
2016-Aug-24 08:29N 23°16' E 116°50'0 0.0
2016-Aug-24 07:29N 23°16' E 116°50'0 0.1
2016-Aug-24 06:32N 23°16' E 116°50'19 9.7
2016-Aug-24 04:33N 23°00' E 116°38'13410.1
2016-Aug-23 15:21N 22°09' E 114°25'31 4.3
2016-Aug-23 08:08N 22°10' E 113°51'610.4
2016-Aug-23 07:33N 22°15' E 113°49'38 9.5
2016-Aug-23 03:30N 22°51' E 113°34'6 6.0
2016-Aug-23 02:33N 22°57' E 113°33'0 0.0
2016-Aug-23 01:32N 22°57' E 113°33'0 0.0
2016-Aug-22 12:22N 22°57' E 113°33'1 1.4
2016-Aug-22 11:33N 22°56' E 113°33'36 8.6
2016-Aug-22 07:19N 22°22' E 113°47'7 9.4
2016-Aug-22 06:33N 22°15' E 113°49'29 1.0
2016-Aug-21 02:22N 22°08' E 114°19'  

Dump ship's entire track history